Time;durP1;ratioP1;P1;durP2;ratioP2;P2;SDS_P1;SDS_P2;PMS_P1;PMS_P2;Temp;Humidity;BMP_temperature;BMP_pressure;BME280_temperature;BME280_humidity;BME280_pressure;Samples;Min_cycle;Max_cycle;Signal;HPM_P1;HPM_P2
2023/09/05 00:02:44;;;;;;;11.60;5.07;;;;;;;24.44;100.00;100157.66;20662404;28;20102;-73
2023/09/05 00:13:11;;;;;;;9.95;4.80;;;;;;;24.44;100.00;100138.75;20656082;28;20058;-73
2023/09/05 00:23:36;;;;;;;10.32;5.25;;;;;;;24.37;100.00;100139.16;20645031;28;20113;-73
2023/09/05 00:33:58;;;;;;;11.48;5.10;;;;;;;24.02;100.00;100151.69;20660261;28;20470;-73
2023/09/05 00:44:22;;;;;;;11.95;5.45;;;;;;;24.27;100.00;100156.78;20657274;28;20165;-73
2023/09/05 00:54:44;;;;;;;11.23;5.03;;;;;;;24.25;100.00;100148.75;20656545;28;20051;-73
2023/09/05 01:05:10;;;;;;;13.73;5.25;;;;;;;24.36;100.00;100140.97;20656913;28;20050;-73
2023/09/05 01:15:32;;;;;;;19.50;5.32;;;;;;;24.19;100.00;100131.06;20641568;28;20094;-73
2023/09/05 01:25:57;;;;;;;13.57;5.20;;;;;;;24.31;100.00;100126.84;20619231;28;20050;-74
2023/09/05 01:36:20;;;;;;;13.32;5.00;;;;;;;24.35;100.00;100106.00;20641701;28;20454;-74
2023/09/05 01:46:45;;;;;;;14.02;5.20;;;;;;;24.26;100.00;100091.16;20654586;28;20050;-73
2023/09/05 01:57:08;;;;;;;10.07;5.35;;;;;;;24.12;100.00;100116.09;20652281;28;20042;-73
2023/09/05 02:07:32;;;;;;;13.95;5.20;;;;;;;24.18;100.00;100112.19;20636539;28;20057;-74
2023/09/05 02:17:55;;;;;;;13.98;4.70;;;;;;;24.24;100.00;100103.84;20636509;28;20137;-73
2023/09/05 02:28:22;;;;;;;9.25;5.30;;;;;;;24.32;100.00;100107.00;20638556;28;20383;-73
2023/09/05 02:38:45;;;;;;;12.65;5.07;;;;;;;24.31;100.00;100126.84;20635512;28;20058;-73
2023/09/05 02:49:09;;;;;;;11.32;5.20;;;;;;;24.30;100.00;100132.31;20635910;28;20101;-73
2023/09/05 02:59:31;;;;;;;13.40;5.88;;;;;;;24.31;100.00;100120.56;20648407;28;20062;-73
2023/09/05 03:09:55;;;;;;;12.43;5.88;;;;;;;24.27;100.00;100100.13;20628587;28;20066;-73
2023/09/05 03:20:25;;;;;;;13.02;4.85;;;;;;;24.16;100.00;100119.50;20629330;28;20054;-74
2023/09/05 03:30:49;;;;;;;12.77;5.07;;;;;;;24.21;100.00;100131.84;20632137;28;20084;-74
2023/09/05 03:41:12;;;;;;;12.48;4.93;;;;;;;24.19;100.00;100131.06;20646252;28;20070;-73
2023/09/05 03:51:36;;;;;;;11.73;5.72;;;;;;;24.17;100.00;100086.19;20632920;28;20499;-74
2023/09/05 04:01:59;;;;;;;13.38;5.43;;;;;;;24.14;100.00;100091.75;20633301;28;20053;-73
2023/09/05 04:12:22;;;;;;;10.45;5.55;;;;;;;24.34;100.00;100121.31;20631029;28;20142;-73
2023/09/05 04:22:46;;;;;;;10.82;4.90;;;;;;;24.67;100.00;100124.09;20651236;28;20054;-74
2023/09/05 04:33:10;;;;;;;14.70;5.15;;;;;;;24.79;100.00;100141.47;20656396;28;20062;-74
2023/09/05 04:43:33;;;;;;;12.15;5.38;;;;;;;24.95;100.00;100143.28;20654123;28;20138;-73
2023/09/05 04:53:57;;;;;;;13.82;5.60;;;;;;;25.25;100.00;100132.66;20655336;28;20046;-73
2023/09/05 05:04:22;;;;;;;11.43;5.85;;;;;;;25.39;100.00;100132.78;20653094;28;20046;-73
2023/09/05 05:14:46;;;;;;;11.95;4.95;;;;;;;25.80;100.00;100137.69;20639674;28;20446;-74
2023/09/05 05:25:09;;;;;;;15.10;5.22;;;;;;;26.59;100.00;100168.22;20654723;28;20100;-73
2023/09/05 05:35:34;;;;;;;14.02;5.88;;;;;;;26.59;100.00;100154.69;20648434;28;20054;-74
2023/09/05 05:45:56;;;;;;;11.95;6.00;;;;;;;26.60;100.00;100153.72;20655546;28;20043;-73
2023/09/05 05:56:20;;;;;;;10.90;5.32;;;;;;;26.78;100.00;100159.91;20641667;28;20121;-73
2023/09/05 06:06:45;;;;;;;9.02;4.45;;;;;;;27.79;100.00;100154.41;20644695;28;20054;-73
2023/09/05 06:17:09;;;;;;;10.68;3.88;;;;;;;28.85;100.00;100167.13;20656680;28;20371;-74
2023/09/05 06:27:32;;;;;;;8.20;3.90;;;;;;;29.91;95.02;100179.50;20638378;28;20580;-74
2023/09/05 06:37:56;;;;;;;7.85;3.40;;;;;;;30.23;88.30;100201.63;20634684;28;20128;-74
2023/09/05 06:48:18;;;;;;;6.22;2.90;;;;;;;29.77;88.74;100213.16;20651174;28;20050;-74
2023/09/05 06:58:42;;;;;;;5.20;1.73;;;;;;;28.22;93.62;100225.81;20652826;28;20485;-74
2023/09/05 07:09:05;;;;;;;8.52;3.22;;;;;;;27.67;100.00;100232.94;20644186;28;20104;-74
2023/09/05 07:19:31;;;;;;;10.98;4.55;;;;;;;27.24;100.00;100271.81;20648886;28;20071;-73
2023/09/05 07:29:53;;;;;;;18.60;8.57;;;;;;;23.73;100.00;100309.47;20634253;28;20914;-77
2023/09/05 07:40:18;;;;;;;16.75;7.38;;;;;;;23.27;100.00;100297.16;20616403;28;20043;-76
2023/09/05 07:50:41;;;;;;;18.23;10.75;;;;;;;22.62;100.00;100322.31;20638400;28;20086;-77
2023/09/05 08:01:09;;;;;;;9.00;4.78;;;;;;;22.45;100.00;100311.38;20652870;28;20058;-78
2023/09/05 08:11:31;;;;;;;;;;;;;;;23.14;100.00;100306.69;20625549;28;20050;-76
2023/09/05 08:21:55;;;;;;;8.57;4.40;;;;;;;23.48;100.00;100295.34;20650858;28;19945;-76
2023/09/05 08:32:18;;;;;;;8.75;4.38;;;;;;;24.20;100.00;100309.97;20651500;28;20046;-76
2023/09/05 08:42:43;;;;;;;7.72;4.60;;;;;;;25.10;100.00;100327.13;20641824;28;20054;-76
2023/09/05 08:53:11;;;;;;;10.45;4.32;;;;;;;25.91;100.00;100330.03;20642363;28;20120;-75
2023/09/05 09:03:35;;;;;;;6.82;4.18;;;;;;;26.96;100.00;100337.63;20640303;28;20054;-75
2023/09/05 09:14:01;;;;;;;8.30;4.28;;;;;;;27.19;100.00;100279.31;20632229;28;20058;-74
2023/09/05 09:24:31;;;;;;;8.23;3.88;;;;;;;27.66;100.00;100260.16;20644592;28;20050;-74
2023/09/05 09:34:56;;;;;;;7.55;3.85;;;;;;;28.01;100.00;100256.06;20627465;28;20061;-75
2023/09/05 09:45:20;;;;;;;5.55;3.22;;;;;;;28.14;100.00;100259.75;20645969;28;20610;-74
2023/09/05 09:55:44;;;;;;;7.95;3.72;;;;;;;28.62;100.00;100253.91;20638313;28;20573;-74
2023/09/05 10:06:10;;;;;;;6.43;3.88;;;;;;;28.84;100.00;100256.94;20648260;28;20046;-75
2023/09/05 10:16:34;;;;;;;7.40;3.77;;;;;;;29.02;100.00;100254.78;20628493;28;20410;-75
2023/09/05 10:26:58;;;;;;;6.68;3.67;;;;;;;29.16;100.00;100263.72;20638801;28;20740;-76
2023/09/05 10:37:22;;;;;;;8.23;3.75;;;;;;;28.90;100.00;100251.94;20645487;28;20104;-75
2023/09/05 10:47:47;;;;;;;6.97;3.63;;;;;;;28.77;100.00;100251.03;20630703;28;20450;-75
2023/09/05 10:58:38;;;;;;;6.53;3.65;;;;;;;28.61;100.00;100258.47;20649849;28;20056;-75
2023/09/05 11:09:05;;;;;;;6.15;3.63;;;;;;;28.31;100.00;100280.38;20613068;28;20324;-74
2023/09/05 11:19:40;;;;;;;6.65;3.90;;;;;;;28.23;100.00;100277.28;20618679;28;20506;-74
2023/09/05 11:30:06;;;;;;;5.20;3.58;;;;;;;28.11;100.00;100278.91;20636178;28;20148;-75
2023/09/05 11:40:30;;;;;;;7.30;3.97;;;;;;;28.29;100.00;100279.59;20659686;28;20047;-77
2023/09/05 11:50:55;;;;;;;8.82;4.30;;;;;;;28.34;100.00;100268.44;20639728;28;20452;-77
2023/09/05 12:01:28;;;;;;;8.65;3.88;;;;;;;28.30;100.00;100270.47;20628574;28;20517;-75
2023/09/05 12:11:52;;;;;;;6.65;3.50;;;;;;;28.48;100.00;100291.00;20609175;28;20054;-77
2023/09/05 12:22:25;;;;;;;6.20;3.30;;;;;;;28.44;98.25;100281.31;20646985;28;20050;-78
2023/09/05 12:32:49;;;;;;;5.78;3.38;;;;;;;28.32;95.43;100283.97;20654965;28;20124;-77
2023/09/05 12:43:12;;;;;;;7.03;3.50;;;;;;;28.23;100.00;100282.69;20629601;28;20093;-74
2023/09/05 12:53:36;;;;;;;5.80;3.60;;;;;;;28.18;100.00;100282.13;20623758;28;20454;-75
2023/09/05 13:04:00;;;;;;;6.53;3.58;;;;;;;28.27;100.00;100270.69;20657093;28;20544;-75
2023/09/05 13:14:24;;;;;;;6.07;3.67;;;;;;;28.27;100.00;100275.25;20649173;28;20062;-74
2023/09/05 13:24:46;;;;;;;7.28;3.45;;;;;;;28.30;97.39;100273.19;20642311;28;20116;-75
2023/09/05 13:35:11;;;;;;;6.60;3.35;;;;;;;28.38;98.15;100283.56;20659576;28;20042;-74
2023/09/05 13:45:33;;;;;;;8.60;3.33;;;;;;;28.40;100.00;100287.03;20643293;28;20058;-75
2023/09/05 13:55:58;;;;;;;6.75;3.58;;;;;;;28.34;100.00;100304.63;20648577;28;20050;-73
2023/09/05 14:06:20;;;;;;;8.23;3.38;;;;;;;28.27;100.00;100299.69;20639269;28;20054;-74
2023/09/05 14:16:45;;;;;;;6.13;3.20;;;;;;;28.46;100.00;100300.22;20627853;28;20108;-73
2023/09/05 14:27:08;;;;;;;4.70;3.00;;;;;;;28.53;100.00;100291.56;20641430;28;20266;-73
2023/09/05 14:37:32;;;;;;;6.47;3.33;;;;;;;28.26;100.00;100285.22;20635079;28;20391;-73
2023/09/05 14:47:54;;;;;;;6.18;3.40;;;;;;;28.13;100.00;100293.28;20631687;28;20061;-73
2023/09/05 14:58:19;;;;;;;5.38;2.65;;;;;;;28.01;100.00;100306.75;20649038;28;20434;-74
2023/09/05 15:08:45;;;;;;;6.35;3.03;;;;;;;27.83;100.00;100307.94;20648886;28;20255;-73
2023/09/05 15:19:09;;;;;;;6.50;3.50;;;;;;;27.77;100.00;100320.03;20645625;28;20506;-74
2023/09/05 15:29:32;;;;;;;7.85;3.42;;;;;;;27.73;100.00;100343.78;20630578;28;20058;-74
2023/09/05 15:39:55;;;;;;;10.70;3.97;;;;;;;27.70;100.00;100351.22;20640011;28;20055;-74
2023/09/05 15:50:18;;;;;;;10.50;4.18;;;;;;;27.60;100.00;100348.22;20651838;28;20057;-74
2023/09/05 16:00:43;;;;;;;8.05;4.15;;;;;;;27.34;100.00;100352.47;20646288;28;20581;-76
2023/09/05 16:11:10;;;;;;;6.35;3.80;;;;;;;27.12;100.00;100356.53;20626697;28;20062;-74
2023/09/05 16:21:35;;;;;;;7.93;4.70;;;;;;;26.95;100.00;100371.09;20648349;28;20043;-76
2023/09/05 16:32:00;;;;;;;8.90;4.07;;;;;;;26.76;100.00;100371.25;20635323;28;20046;-74
2023/09/05 16:42:24;;;;;;;8.27;4.60;;;;;;;26.50;100.00;100374.59;20648420;28;20047;-74
2023/09/05 16:52:51;;;;;;;7.88;4.28;;;;;;;26.39;100.00;100401.38;20649169;28;20054;-75
2023/09/05 17:03:15;;;;;;;8.82;4.68;;;;;;;26.27;100.00;100411.03;20613274;28;20097;-74
2023/09/05 17:13:37;;;;;;;6.63;4.25;;;;;;;26.12;100.00;100426.25;20626130;28;20061;-74
2023/09/05 17:24:01;;;;;;;9.13;4.75;;;;;;;26.03;100.00;100431.28;20649494;28;20042;-74
2023/09/05 17:34:24;;;;;;;8.13;4.18;;;;;;;25.92;100.00;100444.53;20619315;28;20139;-74
2023/09/05 17:44:47;;;;;;;9.52;4.38;;;;;;;25.85;100.00;100451.22;20655667;28;20050;-74
2023/09/05 17:55:10;;;;;;;8.35;4.75;;;;;;;25.74;100.00;100457.16;20634634;28;20077;-74
2023/09/05 18:05:34;;;;;;;9.20;4.35;;;;;;;25.63;100.00;100463.13;20654533;28;20054;-75
2023/09/05 18:16:03;;;;;;;11.90;4.68;;;;;;;25.55;100.00;100472.53;20653950;28;20054;-74
2023/09/05 18:26:28;;;;;;;6.55;4.00;;;;;;;25.49;100.00;100484.56;20664187;28;20058;-74
2023/09/05 18:36:50;;;;;;;10.93;5.10;;;;;;;25.42;100.00;100504.72;20626982;28;20085;-74
2023/09/05 18:47:15;;;;;;;8.48;4.57;;;;;;;25.36;100.00;100503.22;20630934;28;20042;-74
2023/09/05 18:57:37;;;;;;;8.68;4.20;;;;;;;25.37;100.00;100515.78;20643445;28;20057;-74
2023/09/05 19:08:04;;;;;;;7.63;4.18;;;;;;;25.39;100.00;100521.13;20660670;28;20084;-73
2023/09/05 19:18:26;;;;;;;8.20;4.13;;;;;;;25.36;100.00;100529.38;20642775;28;20054;-74
2023/09/05 19:28:50;;;;;;;6.70;3.92;;;;;;;25.35;100.00;100536.59;20642038;28;20047;-75
2023/09/05 19:39:14;;;;;;;7.43;4.35;;;;;;;25.32;100.00;100525.06;20629836;28;20061;-73
2023/09/05 19:49:38;;;;;;;8.52;4.63;;;;;;;25.28;100.00;100518.03;20679869;28;20112;-74
2023/09/05 20:00:01;;;;;;;7.00;4.38;;;;;;;25.19;100.00;100511.28;20659438;28;20487;-74
2023/09/05 20:10:25;;;;;;;7.03;4.30;;;;;;;25.20;100.00;100521.16;20640462;28;20062;-74
2023/09/05 20:20:53;;;;;;;8.98;4.32;;;;;;;25.24;100.00;100527.25;20675325;28;20505;-74
2023/09/05 20:31:17;;;;;;;8.85;4.30;;;;;;;25.26;100.00;100517.28;20658341;28;20058;-74
2023/09/05 20:41:40;;;;;;;9.30;4.80;;;;;;;25.27;100.00;100494.69;20666304;28;20065;-73
2023/09/05 20:52:04;;;;;;;7.82;4.80;;;;;;;25.28;100.00;100497.31;20673584;28;20099;-77
2023/09/05 21:02:27;;;;;;;9.50;4.93;;;;;;;25.29;100.00;100499.06;20669872;28;20137;-74
2023/09/05 21:12:51;;;;;;;9.23;5.18;;;;;;;25.31;100.00;100502.56;20682789;28;20069;-73
2023/09/05 21:23:13;;;;;;;8.52;5.03;;;;;;;25.28;100.00;100497.31;20657669;28;20062;-74
2023/09/05 21:33:38;;;;;;;9.48;5.20;;;;;;;25.31;100.00;100496.28;20665782;28;20051;-75
2023/09/05 21:44:01;;;;;;;6.75;4.93;;;;;;;25.24;100.00;100484.91;20658630;28;20442;-74
2023/09/05 21:54:25;;;;;;;11.25;4.88;;;;;;;25.19;100.00;100496.91;20662997;28;20058;-75
2023/09/05 22:04:47;;;;;;;9.18;5.32;;;;;;;25.19;100.00;100486.09;20673351;28;20050;-74
2023/09/05 22:15:14;;;;;;;9.50;4.70;;;;;;;25.20;100.00;100482.44;20658349;28;20054;-73
2023/09/05 22:25:37;;;;;;;9.18;5.20;;;;;;;25.18;100.00;100474.41;20636944;28;20072;-73
2023/09/05 22:36:01;;;;;;;9.07;5.00;;;;;;;25.13;100.00;100451.25;20653332;28;20384;-73
2023/09/05 22:46:23;;;;;;;11.77;5.63;;;;;;;25.07;100.00;100444.34;20662952;28;20145;-75
2023/09/05 22:56:47;;;;;;;8.13;4.97;;;;;;;25.11;100.00;100456.72;20664917;28;20054;-74
2023/09/05 23:07:10;;;;;;;7.85;4.43;;;;;;;25.14;100.00;100451.16;20672856;28;20073;-76
2023/09/05 23:17:34;;;;;;;8.38;5.30;;;;;;;25.14;100.00;100459.28;20647540;28;20053;-74
2023/09/05 23:27:56;;;;;;;8.85;4.68;;;;;;;25.09;100.00;100460.44;20647861;28;20046;-74
2023/09/05 23:38:23;;;;;;;8.73;5.03;;;;;;;25.05;100.00;100448.94;20643536;28;20081;-75
2023/09/05 23:48:45;;;;;;;7.70;5.13;;;;;;;25.02;100.00;100466.16;20634145;28;20039;-74
2023/09/05 23:59:09;;;;;;;9.80;5.80;;;;;;;24.96;100.00;100482.66;20640392;28;20042;-73
